Mason, MI

3:12 PM EST on February 14, 2016 (GMT -0500)
Mason Jewett | | Change Station
CLOSE
Current Station
Airport
Location: Mason,
Elevation: 919 ft
Nearby Weather Stations

Elev 919 ft 42.57 °N, 84.42 °W | Updated 19 minutes ago

Clear
Clear
18 °F
Feels Like 6 °F
N
9
Wind Variable Wind from SE

Today
High -- | Low -- °F
--% Chance of Precip.
Yesterday
High -- | Low -- °F
Precip. -- in
Pressure 30.27 in
Visibility 10.0 miles
Clouds Clear
Windchill 6 °F
Dew Point 6 °F
Humidity 60%
Rainfall 0.00 in
Snow Depth Not available.
7:36 AM 6:07 PM
Waxing Crescent, 45% visible
METAR KTEW 141953Z AUTO 14008KT 10SM CLR M08/M15 A3027 RMK AO2 T10801146
Pressure 30.27 in
Visibility 10.0 miles
Clouds Clear
Windchill 6 °F
Dew Point 6 °F
Humidity 60%
Rainfall 0.00 in
Snow Depth Not available.
7:36 AM 6:07 PM
Waxing Crescent, 45% visible
METAR KTEW 141953Z AUTO 14008KT 10SM CLR M08/M15 A3027 RMK AO2 T10801146

10-Day Weather Forecast

Almanac

Astronomy

Feb. 14, 2016 Rise Set
Actual Time
Civil Twilight
Nautical Twilight
Astronomical Twilight
Moon
Length of Visible Light
Length of Day
Tomorrow will be .
, % of the Moon is Illuminated

Today's Extremes

State Highs State Lows

Community

WunderPhotos

Upload Photos

1,892,880 photos uploaded!

WunderBlog® & News

Nearby

Air Quality

  Air Quality AQ Index Pollutant
Not available.

Snow Depth

Station Depth Elevation

Earthquake Activity

City Distance Mag. Time & Date
Minimum magnitude displayed is 2.5.

Coastal Water Temperatures

Place Temperature

Stations

Nearby Weather Stations

Station Location Temp. Windchill Dew Point Humidity Wind Precip. Elev Updated Type
                   

Watches & Warnings

There are currently no watches in effect.